createdAt,value
2017-12-05T00:00:40.582Z,25.83
2017-12-05T00:03:07.472Z,28.75
2017-12-05T00:05:34.380Z,25.23
2017-12-05T00:08:01.297Z,29.23
2017-12-05T00:10:28.198Z,28.60
2017-12-05T00:12:55.143Z,27.35
2017-12-05T00:15:22.015Z,27.70
2017-12-05T00:17:48.971Z,27.70
2017-12-05T00:20:15.845Z,26.92
2017-12-05T00:22:42.767Z,27.27
2017-12-05T00:25:09.716Z,25.98
2017-12-05T00:27:36.592Z,25.55
2017-12-05T00:30:03.529Z,25.27
2017-12-05T00:32:30.424Z,28.38
2017-12-05T00:34:58.088Z,22.30
2017-12-05T00:37:24.973Z,22.08
2017-12-05T00:39:51.844Z,22.80
2017-12-05T00:42:18.781Z,24.77
2017-12-05T00:44:45.632Z,24.12
2017-12-05T00:47:12.564Z,23.45
2017-12-05T00:49:39.456Z,25.15
2017-12-05T00:52:07.056Z,23.80
2017-12-05T00:54:33.927Z,23.48
2017-12-05T00:57:00.788Z,26.37
2017-12-05T00:59:27.660Z,23.98
2017-12-05T01:01:54.539Z,25.88
2017-12-05T01:04:21.405Z,27.02
2017-12-05T01:07:03.235Z,28.35
2017-12-05T01:09:30.240Z,27.92
2017-12-05T01:11:57.086Z,28.75
2017-12-05T01:14:23.920Z,29.50
2017-12-05T01:16:50.800Z,29.33
2017-12-05T01:19:17.700Z,28.60
2017-12-05T01:21:44.561Z,29.90
2017-12-05T01:24:11.409Z,29.55
2017-12-05T01:26:39.052Z,30.30
2017-12-05T01:29:05.920Z,30.50
2017-12-05T01:31:32.792Z,29.77
2017-12-05T01:33:59.679Z,29.52
2017-12-05T01:36:27.283Z,32.42
2017-12-05T01:38:54.863Z,30.23
2017-12-05T01:41:21.797Z,34.30
2017-12-05T01:43:48.708Z,31.25
2017-12-05T01:46:15.612Z,31.83
2017-12-05T01:48:42.563Z,34.53
2017-12-05T01:51:09.461Z,34.17
2017-12-05T01:53:37.111Z,34.03
2017-12-05T01:56:04.796Z,35.30
2017-12-05T01:58:31.772Z,32.53
2017-12-05T02:00:58.716Z,34.65
2017-12-05T02:03:25.636Z,31.98
2017-12-05T02:05:52.591Z,33.83
2017-12-05T02:08:19.531Z,33.60
2017-12-05T02:10:46.420Z,35.78
2017-12-05T02:13:13.373Z,35.47
2017-12-05T02:15:40.332Z,35.83
2017-12-05T02:18:08.008Z,36.80
2017-12-05T02:20:34.910Z,35.80
2017-12-05T02:23:01.784Z,34.08
2017-12-05T02:25:29.445Z,36.85
2017-12-05T02:27:57.053Z,35.20
2017-12-05T02:30:23.929Z,35.97
2017-12-05T02:32:50.808Z,35.85
2017-12-05T02:35:17.707Z,35.60
2017-12-05T02:37:44.613Z,36.05
2017-12-05T02:40:11.518Z,35.25
2017-12-05T02:42:38.380Z,34.83
2017-12-05T02:45:05.292Z,36.72
2017-12-05T02:47:32.256Z,38.90
2017-12-05T02:49:59.924Z,36.55
2017-12-05T02:52:27.592Z,35.50
2017-12-05T02:54:54.487Z,35.95
2017-12-05T02:57:21.396Z,39.17
2017-12-05T02:59:48.320Z,35.15
2017-12-05T03:02:16.004Z,35.08
2017-12-05T03:04:43.635Z,36.35
2017-12-05T03:07:10.560Z,37.85
2017-12-05T03:09:37.460Z,40.30
2017-12-05T03:12:04.357Z,39.95
2017-12-05T03:14:32.020Z,38.80
2017-12-05T03:16:58.971Z,38.47
2017-12-05T03:19:25.847Z,40.20
2017-12-05T03:21:52.720Z,42.75
2017-12-05T03:24:19.568Z,40.17
2017-12-05T03:26:46.440Z,41.17
2017-12-05T03:29:13.331Z,40.35
2017-12-05T03:31:40.945Z,40.42
2017-12-05T03:34:07.940Z,41.83
2017-12-05T03:36:34.833Z,41.22
2017-12-05T03:39:01.708Z,42.08
2017-12-05T03:41:28.591Z,40.78
2017-12-05T03:43:55.502Z,44.35
2017-12-05T03:46:22.423Z,39.33
2017-12-05T03:48:50.040Z,37.80
2017-12-05T03:51:16.931Z,42.28
2017-12-05T03:53:43.779Z,38.30
2017-12-05T03:56:11.412Z,37.60
2017-12-05T03:58:38.259Z,37.95
2017-12-05T04:01:05.272Z,38.72
2017-12-05T04:03:32.140Z,39.08
2017-12-05T04:05:59.056Z,37.72
2017-12-05T04:08:25.907Z,36.70
2017-12-05T04:10:52.748Z,37.72
2017-12-05T04:13:19.633Z,34.67
2017-12-05T04:15:47.250Z,36.65
2017-12-05T04:18:14.119Z,34.85
2017-12-05T04:20:40.981Z,35.00
2017-12-05T04:23:07.828Z,35.67
2017-12-05T04:25:36.471Z,32.15
2017-12-05T04:28:03.316Z,31.70
2017-12-05T04:30:30.203Z,33.03
2017-12-05T04:32:57.871Z,30.08
2017-12-05T04:35:25.515Z,31.83
2017-12-05T04:37:52.411Z,30.62
2017-12-05T04:40:19.316Z,29.58
2017-12-05T04:42:46.319Z,30.83
2017-12-05T04:45:13.207Z,29.20
2017-12-05T04:47:40.883Z,31.83
2017-12-05T04:50:08.536Z,32.88
2017-12-05T04:52:36.184Z,30.08
2017-12-05T04:55:03.104Z,32.10
2017-12-05T04:57:30.024Z,31.73
2017-12-05T04:59:57.660Z,28.77
2017-12-05T05:02:24.637Z,28.42
2017-12-05T05:04:51.700Z,31.42
2017-12-05T05:07:18.577Z,29.30
2017-12-05T05:09:46.192Z,30.60
2017-12-05T05:12:13.120Z,28.85
2017-12-05T05:14:39.984Z,28.05
2017-12-05T05:17:07.011Z,28.52
2017-12-05T05:19:33.938Z,28.05
2017-12-05T05:22:00.843Z,27.58
2017-12-05T05:24:27.732Z,30.60
2017-12-05T05:26:55.344Z,28.05
2017-12-05T05:29:22.259Z,27.08
2017-12-05T05:31:49.140Z,25.25
2017-12-05T05:34:16.027Z,28.30
2017-12-05T05:36:43.431Z,25.73
2017-12-05T05:39:11.354Z,27.60
2017-12-05T05:41:38.287Z,26.45
2017-12-05T05:44:05.175Z,27.02
2017-12-05T05:46:32.087Z,24.35
2017-12-05T05:48:58.975Z,25.30
2017-12-05T05:51:25.895Z,27.10
2017-12-05T05:53:52.802Z,23.65
2017-12-05T05:56:20.522Z,23.73
2017-12-05T05:58:47.459Z,24.33
2017-12-05T06:01:14.336Z,26.30
2017-12-05T06:03:41.995Z,25.17
2017-12-05T06:06:09.632Z,24.98
2017-12-05T06:08:36.497Z,25.50
2017-12-05T06:11:03.361Z,26.05
2017-12-05T06:13:30.182Z,26.23
2017-12-05T06:15:57.064Z,27.05
2017-12-05T06:18:24.615Z,32.20
2017-12-05T06:20:51.497Z,34.78
2017-12-05T06:23:18.358Z,34.03
2017-12-05T06:25:45.227Z,33.35
2017-12-05T06:28:12.847Z,36.40
2017-12-05T06:30:40.005Z,34.00
2017-12-05T06:33:07.659Z,35.40
2017-12-05T06:35:34.588Z,30.67
2017-12-05T06:38:01.464Z,29.73
2017-12-05T06:40:28.529Z,31.98
2017-12-05T06:42:56.169Z,32.72
2017-12-05T06:45:23.086Z,31.15
2017-12-05T06:47:50.019Z,33.53
2017-12-05T06:50:16.975Z,34.45
2017-12-05T06:52:43.992Z,33.95
2017-12-05T06:55:10.935Z,32.08
2017-12-05T06:57:37.834Z,34.17
2017-12-05T07:00:04.755Z,34.90
2017-12-05T07:02:31.692Z,34.05
2017-12-05T07:04:58.627Z,35.25
2017-12-05T07:07:25.595Z,34.75
2017-12-05T07:09:52.633Z,35.13
2017-12-05T07:12:19.563Z,36.42
2017-12-05T07:14:47.199Z,34.40
2017-12-05T07:17:14.868Z,33.30
2017-12-05T07:19:41.724Z,33.47
2017-12-05T07:22:08.610Z,32.20
2017-12-05T07:24:35.551Z,34.08
2017-12-05T07:27:02.459Z,30.27
2017-12-05T07:29:29.344Z,32.88
2017-12-05T07:31:56.319Z,33.55
2017-12-05T07:34:23.200Z,37.60
2017-12-05T07:36:50.115Z,37.92
2017-12-05T07:39:17.784Z,38.08
2017-12-05T07:41:44.674Z,35.10
2017-12-05T07:44:11.566Z,33.03
2017-12-05T07:46:39.250Z,31.60
2017-12-05T07:49:06.168Z,32.67
2017-12-05T07:51:33.859Z,28.33
2017-12-05T07:54:00.748Z,28.77
2017-12-05T07:56:27.644Z,29.08
2017-12-05T07:58:54.624Z,30.27
2017-12-05T08:01:22.329Z,30.88
2017-12-05T08:03:49.948Z,38.17
2017-12-05T08:06:16.915Z,42.55
2017-12-05T08:08:43.811Z,45.60
2017-12-05T08:11:10.767Z,40.85
2017-12-05T08:13:37.694Z,43.33
2017-12-05T08:16:04.655Z,43.35
2017-12-05T08:18:31.614Z,42.13
2017-12-05T08:20:58.540Z,44.72
2017-12-05T08:23:25.484Z,44.22
2017-12-05T08:25:52.435Z,41.80
2017-12-05T08:28:19.386Z,41.85
2017-12-05T08:30:47.059Z,42.58
2017-12-05T08:33:14.008Z,41.17
2017-12-05T08:35:40.938Z,40.50
2017-12-05T08:38:07.875Z,44.42
2017-12-05T08:40:34.803Z,45.45
2017-12-05T08:43:01.744Z,41.22
2017-12-05T08:45:28.624Z,43.13
2017-12-05T08:47:55.584Z,42.53
2017-12-05T08:50:22.428Z,45.60
2017-12-05T08:52:49.367Z,44.08
2017-12-05T08:55:16.875Z,46.33
2017-12-05T08:57:45.359Z,44.20
2017-12-05T09:00:13.330Z,44.78
2017-12-05T09:02:42.935Z,45.92
2017-12-05T09:05:10.706Z,40.70
2017-12-05T09:07:38.668Z,43.72
2017-12-05T09:10:06.640Z,40.17
2017-12-05T09:12:33.988Z,42.15
2017-12-05T09:15:00.883Z,40.88
2017-12-05T09:17:27.795Z,40.20
2017-12-05T09:19:54.704Z,42.35
2017-12-05T09:22:22.387Z,37.95
2017-12-05T09:24:49.303Z,39.63
2017-12-05T09:27:16.979Z,39.63
2017-12-05T09:29:44.100Z,40.10
2017-12-05T09:32:10.989Z,39.63
2017-12-05T09:34:37.899Z,39.40
2017-12-05T09:37:05.034Z,38.92
2017-12-05T09:39:31.920Z,39.00
2017-12-05T09:41:59.540Z,37.45
2017-12-05T09:44:26.463Z,39.95
2017-12-05T09:46:53.347Z,36.70
2017-12-05T09:49:21.067Z,36.53
2017-12-05T09:51:47.995Z,37.55
2017-12-05T09:54:14.927Z,38.03
2017-12-05T09:56:41.891Z,34.65
2017-12-05T09:59:08.800Z,34.83
2017-12-05T10:01:36.503Z,37.53
2017-12-05T10:04:03.413Z,34.55
2017-12-05T10:06:30.519Z,37.03
2017-12-05T10:08:57.421Z,35.47
2017-12-05T10:11:24.320Z,34.08
2017-12-05T10:13:51.267Z,32.15
2017-12-05T10:16:18.183Z,32.10
2017-12-05T10:18:45.112Z,37.13
2017-12-05T10:21:12.032Z,38.40
2017-12-05T10:23:39.695Z,35.53
2017-12-05T10:26:07.380Z,37.00
2017-12-05T10:28:34.328Z,32.53
2017-12-05T10:31:01.243Z,37.40
2017-12-05T10:33:28.900Z,36.40
2017-12-05T10:35:55.840Z,36.40
2017-12-05T10:38:23.468Z,32.10
2017-12-05T10:40:50.400Z,30.50
2017-12-05T10:43:17.326Z,28.50
2017-12-05T10:45:44.235Z,29.17
2017-12-05T10:48:11.922Z,27.50
2017-12-05T10:50:38.860Z,23.17
2017-12-05T10:53:05.800Z,25.27
2017-12-05T10:55:32.736Z,17.50
2017-12-05T10:58:00.395Z,23.37
2017-12-05T11:00:28.055Z,25.93
2017-12-05T11:02:54.944Z,27.07
2017-12-05T11:05:21.824Z,28.60
2017-12-05T11:07:49.479Z,25.93
2017-12-05T11:10:16.397Z,30.70
2017-12-05T11:12:43.313Z,29.03
2017-12-05T11:15:10.200Z,29.30
2017-12-05T11:17:37.152Z,28.53
2017-12-05T11:20:04.059Z,30.10
2017-12-05T11:22:30.988Z,32.20
2017-12-05T11:24:57.866Z,33.53
2017-12-05T11:27:24.795Z,34.90
2017-12-05T11:29:51.657Z,32.37
2017-12-05T11:32:18.602Z,35.40
2017-12-05T11:34:45.503Z,36.40
2017-12-05T11:37:12.414Z,36.73
2017-12-05T11:39:39.319Z,37.90
2017-12-05T11:42:06.192Z,39.83
2017-12-05T11:44:33.119Z,35.00
2017-12-05T11:47:00.071Z,36.73
2017-12-05T11:49:27.042Z,38.57
2017-12-05T11:51:53.975Z,36.53
2017-12-05T11:54:20.913Z,35.23
2017-12-05T11:56:47.831Z,29.97
2017-12-05T11:59:14.712Z,32.73
2017-12-05T12:01:41.633Z,31.07
2017-12-05T12:04:08.514Z,30.50
2017-12-05T12:06:35.531Z,32.80
2017-12-05T12:09:02.448Z,31.20
2017-12-05T12:11:29.323Z,29.73
2017-12-05T12:13:56.233Z,33.05
2017-12-05T12:16:23.151Z,32.00
2017-12-05T12:18:50.031Z,33.03
2017-12-05T12:21:16.888Z,32.25
2017-12-05T12:23:43.782Z,32.92
2017-12-05T12:26:10.726Z,32.70
2017-12-05T12:28:37.611Z,29.48
2017-12-05T12:31:04.480Z,29.20
2017-12-05T12:33:31.383Z,28.50
2017-12-05T12:35:58.296Z,26.90
2017-12-05T12:38:25.199Z,28.30
2017-12-05T12:40:52.086Z,27.47
2017-12-05T12:43:19.004Z,29.67
2017-12-05T12:45:45.950Z,30.60
2017-12-05T12:48:12.831Z,30.10
2017-12-05T12:50:39.832Z,32.72
2017-12-05T12:53:06.671Z,33.70
2017-12-05T12:55:33.587Z,31.55
2017-12-05T12:58:00.487Z,33.97
2017-12-05T13:00:28.127Z,35.67
2017-12-05T13:02:55.023Z,32.40
2017-12-05T13:05:21.967Z,30.67
2017-12-05T13:07:48.847Z,28.60
2017-12-05T13:10:15.719Z,26.13
2017-12-05T13:12:43.308Z,27.63
2017-12-05T13:15:10.194Z,25.20
2017-12-05T13:17:37.076Z,21.43
2017-12-05T13:20:03.899Z,20.40
2017-12-05T13:22:30.823Z,20.83
2017-12-05T13:24:57.696Z,21.10
2017-12-05T13:27:24.560Z,19.20
2017-12-05T13:29:51.448Z,19.47
2017-12-05T13:32:18.348Z,19.10
2017-12-05T13:34:45.992Z,17.70
2017-12-05T13:37:12.890Z,19.10
2017-12-05T13:39:39.771Z,19.50
2017-12-05T13:42:06.700Z,18.23
2017-12-05T13:44:33.607Z,18.07
2017-12-05T13:47:00.476Z,17.60
2017-12-05T13:49:27.383Z,19.00
2017-12-05T13:51:54.255Z,18.20
2017-12-05T13:54:21.120Z,19.30
2017-12-05T13:56:48.032Z,18.27
2017-12-05T13:59:14.888Z,17.90
2017-12-05T14:01:41.816Z,18.47
2017-12-05T14:04:08.723Z,17.37
2017-12-05T14:06:35.638Z,20.53
2017-12-05T14:09:02.634Z,19.80
2017-12-05T14:11:29.535Z,18.33
2017-12-05T14:13:56.431Z,18.93
2017-12-05T14:16:23.323Z,20.23
2017-12-05T14:18:50.208Z,21.53
2017-12-05T14:21:17.095Z,20.70
2017-12-05T14:23:43.976Z,21.87
2017-12-05T14:26:11.648Z,22.10
2017-12-05T14:28:38.551Z,20.60
2017-12-05T14:31:05.531Z,22.60
2017-12-05T14:33:33.185Z,21.87
2017-12-05T14:36:00.089Z,21.70
2017-12-05T14:38:27.024Z,20.53
2017-12-05T14:40:53.854Z,20.45
2017-12-05T14:43:20.939Z,21.25
2017-12-05T14:45:47.868Z,20.02
2017-12-05T14:48:14.727Z,19.55
2017-12-05T14:50:41.617Z,22.65
2017-12-05T14:53:08.507Z,22.70
2017-12-05T14:55:35.444Z,25.02
2017-12-05T14:58:02.360Z,22.70
2017-12-05T15:00:29.324Z,23.23
2017-12-05T15:02:56.279Z,26.17
2017-12-05T15:05:23.215Z,24.83
2017-12-05T15:07:50.107Z,23.45
2017-12-05T15:10:17.719Z,23.98
2017-12-05T15:12:44.636Z,27.85
2017-12-05T15:15:11.517Z,24.17
2017-12-05T15:17:38.486Z,24.73
2017-12-05T15:20:05.376Z,26.12
2017-12-05T15:22:33.016Z,27.10
2017-12-05T15:25:00.644Z,28.52
2017-12-05T15:27:27.552Z,31.17
2017-12-05T15:29:55.390Z,28.10
2017-12-05T15:32:30.086Z,29.35
2017-12-05T15:34:57.016Z,28.60
2017-12-05T15:37:24.119Z,28.92
2017-12-05T15:39:51.762Z,27.30
2017-12-05T15:42:19.389Z,30.50
2017-12-05T15:44:46.304Z,29.70
2017-12-05T15:47:13.231Z,26.90
2017-12-05T15:49:40.137Z,28.05
2017-12-05T15:52:07.084Z,27.60
2017-12-05T15:54:34.783Z,27.65
2017-12-05T15:57:02.428Z,26.75
2017-12-05T15:59:29.364Z,26.62
2017-12-05T16:01:57.024Z,24.60
2017-12-05T16:04:24.660Z,21.70
2017-12-05T16:06:51.584Z,22.50
2017-12-05T16:09:18.452Z,21.58
2017-12-05T16:11:45.367Z,19.70
2017-12-05T16:14:12.972Z,21.15
2017-12-05T16:16:39.887Z,20.33
2017-12-05T16:19:06.771Z,18.98
2017-12-05T16:21:34.419Z,21.35
2017-12-05T16:24:01.360Z,19.35
2017-12-05T16:26:28.280Z,19.67
2017-12-05T16:28:55.178Z,16.92
2017-12-05T16:31:22.060Z,16.77
2017-12-05T16:33:49.497Z,13.93
2017-12-05T16:36:16.880Z,14.35
2017-12-05T16:38:43.822Z,9.43
2017-12-05T16:41:10.863Z,9.15
2017-12-05T16:43:37.751Z,8.75
2017-12-05T16:46:04.672Z,9.45
2017-12-05T16:48:31.623Z,10.85
2017-12-05T16:50:58.547Z,12.02
2017-12-05T16:53:25.449Z,11.00
2017-12-05T16:55:53.066Z,10.68
2017-12-05T16:58:19.931Z,12.40
2017-12-05T17:00:46.935Z,11.35
2017-12-05T17:03:13.892Z,9.63
2017-12-05T17:05:40.888Z,10.75
2017-12-05T17:08:07.783Z,10.10
2017-12-05T17:10:34.742Z,9.05
2017-12-05T17:13:01.676Z,8.95
2017-12-05T17:15:29.386Z,8.43
2017-12-05T17:17:56.278Z,8.55
2017-12-05T17:20:23.206Z,6.50
2017-12-05T17:22:50.114Z,5.87
2017-12-05T17:25:17.023Z,4.87
2017-12-05T17:27:43.938Z,4.15
2017-12-05T17:30:10.865Z,3.70
2017-12-05T17:32:37.759Z,3.05
2017-12-05T17:35:04.766Z,3.00
2017-12-05T17:37:31.691Z,3.05
2017-12-05T17:39:59.351Z,3.10
2017-12-05T17:42:27.051Z,2.78
2017-12-05T17:44:54.013Z,2.83
2017-12-05T17:47:21.774Z,3.00
2017-12-05T17:49:48.638Z,2.42
2017-12-05T17:52:15.535Z,2.35
2017-12-05T17:54:42.486Z,2.90
2017-12-05T17:57:09.400Z,2.30
2017-12-05T17:59:36.363Z,3.35
2017-12-05T18:02:04.018Z,3.00
2017-12-05T18:04:31.120Z,4.37
2017-12-05T18:06:58.272Z,4.10
2017-12-05T18:09:25.276Z,3.40
2017-12-05T18:11:52.371Z,2.60
2017-12-05T18:14:19.539Z,3.55
2017-12-05T18:16:46.589Z,3.58
2017-12-05T18:19:13.467Z,3.20
2017-12-05T18:21:40.408Z,3.95
2017-12-05T18:24:07.380Z,30.90
2017-12-05T18:26:34.310Z,37.53
2017-12-05T18:29:01.275Z,48.45
2017-12-05T18:31:28.427Z,39.05
2017-12-05T18:33:55.361Z,36.38
2017-12-05T18:36:22.298Z,21.25
2017-12-05T18:38:49.234Z,12.68
2017-12-05T18:41:16.191Z,5.53
2017-12-05T18:43:43.116Z,3.55
2017-12-05T18:46:10.032Z,3.28
2017-12-05T18:48:37.716Z,2.87
2017-12-05T18:51:05.709Z,2.58
2017-12-05T18:53:32.880Z,3.00
2017-12-05T18:55:59.903Z,2.28
2017-12-05T18:58:26.820Z,1.20
2017-12-05T19:00:53.759Z,2.65
2017-12-05T19:03:20.715Z,1.52
2017-12-05T19:05:47.663Z,1.83
2017-12-05T19:08:14.577Z,1.98
2017-12-05T19:10:41.492Z,1.98
2017-12-05T19:13:08.431Z,1.23
2017-12-05T19:15:35.361Z,3.00
2017-12-05T19:18:02.280Z,2.10
2017-12-05T19:20:29.200Z,2.92
2017-12-05T19:22:56.115Z,6.15
2017-12-05T19:25:23.020Z,7.40
2017-12-05T19:27:49.956Z,8.05
2017-12-05T19:30:16.895Z,9.75
2017-12-05T19:32:43.843Z,9.80
2017-12-05T19:35:10.795Z,8.85
2017-12-05T19:37:37.703Z,9.80
2017-12-05T19:40:04.589Z,8.13
2017-12-05T19:42:32.404Z,8.80
2017-12-05T19:44:59.340Z,9.90
2017-12-05T19:47:26.300Z,7.68
2017-12-05T19:49:53.229Z,7.90
2017-12-05T19:52:20.156Z,7.78
2017-12-05T19:54:47.082Z,7.57
2017-12-05T19:57:14.043Z,7.30
2017-12-05T19:59:40.967Z,9.75
2017-12-05T20:02:07.896Z,8.75
2017-12-05T20:04:34.834Z,8.52
2017-12-05T20:07:01.781Z,7.10
2017-12-05T20:09:29.620Z,8.40
2017-12-05T20:11:56.575Z,7.75
2017-12-05T20:14:23.512Z,8.32
2017-12-05T20:16:50.481Z,9.13
2017-12-05T20:19:18.156Z,8.38
2017-12-05T20:21:45.099Z,8.60
2017-12-05T20:24:12.017Z,8.75
2017-12-05T20:26:39.687Z,8.43
2017-12-05T20:29:06.592Z,9.15
2017-12-05T20:31:33.484Z,7.62
2017-12-05T20:34:00.429Z,8.95
2017-12-05T20:36:27.397Z,8.98
2017-12-05T20:38:55.068Z,9.63
2017-12-05T20:41:21.983Z,9.90
2017-12-05T20:43:49.711Z,9.23
2017-12-05T20:46:16.723Z,10.60
2017-12-05T20:48:43.742Z,11.30
2017-12-05T20:51:10.723Z,12.55
2017-12-05T20:53:37.572Z,12.85
2017-12-05T20:56:04.423Z,10.75
2017-12-05T20:58:31.323Z,11.75
2017-12-05T21:00:58.264Z,14.25
2017-12-05T21:03:25.159Z,13.13
2017-12-05T21:05:51.984Z,11.02
2017-12-05T21:08:18.924Z,10.57
2017-12-05T21:10:45.813Z,10.00
2017-12-05T21:13:12.717Z,11.85
2017-12-05T21:15:39.592Z,10.50
2017-12-05T21:18:06.649Z,10.43
2017-12-05T21:20:33.742Z,10.55
2017-12-05T21:23:00.621Z,14.07
2017-12-05T21:25:34.579Z,16.00
2017-12-05T21:28:02.212Z,17.35
2017-12-05T21:30:29.918Z,21.60
2017-12-05T21:32:56.850Z,23.73
2017-12-05T21:35:24.459Z,24.63
2017-12-05T21:37:51.318Z,24.10
2017-12-05T21:40:18.266Z,25.45
2017-12-05T21:42:45.136Z,23.75
2017-12-05T21:45:12.974Z,23.17
2017-12-05T21:47:39.860Z,19.77
2017-12-05T21:50:06.851Z,19.58
2017-12-05T21:52:33.704Z,19.60
2017-12-05T21:55:00.700Z,22.50
2017-12-05T21:57:28.011Z,24.50
2017-12-05T21:59:54.874Z,23.10
2017-12-05T22:02:21.711Z,22.90
2017-12-05T22:04:48.735Z,20.85
2017-12-05T22:07:15.604Z,24.30
2017-12-05T22:09:42.465Z,22.30
2017-12-05T22:12:10.116Z,22.42
2017-12-05T22:14:36.951Z,22.37
2017-12-05T22:17:03.842Z,23.35
2017-12-05T22:19:30.716Z,21.30
2017-12-05T22:21:57.604Z,21.60
2017-12-05T22:24:25.234Z,20.42
2017-12-05T22:26:52.095Z,16.85
2017-12-05T22:29:18.959Z,18.67
2017-12-05T22:31:45.821Z,17.98
2017-12-05T22:34:12.692Z,19.08
2017-12-05T22:36:39.523Z,20.42
2017-12-05T22:39:06.387Z,19.60
2017-12-05T22:41:33.420Z,18.17
2017-12-05T22:44:00.272Z,17.27
2017-12-05T22:46:27.155Z,16.65
2017-12-05T22:48:54.791Z,13.13
2017-12-05T22:51:21.615Z,13.38
2017-12-05T22:53:48.490Z,12.10
2017-12-05T22:56:16.106Z,13.90
2017-12-05T22:58:42.960Z,12.55
2017-12-05T23:01:10.603Z,12.02
2017-12-05T23:03:37.470Z,11.10
2017-12-05T23:06:04.368Z,12.25
2017-12-05T23:08:31.267Z,12.27
2017-12-05T23:10:58.129Z,10.57
2017-12-05T23:13:25.011Z,10.10
2017-12-05T23:15:51.904Z,9.32
2017-12-05T23:18:19.748Z,8.93
2017-12-05T23:20:46.640Z,9.68
2017-12-05T23:23:13.500Z,8.57
2017-12-05T23:25:40.398Z,8.93
2017-12-05T23:28:07.219Z,9.55
2017-12-05T23:30:34.851Z,8.95
2017-12-05T23:33:01.743Z,8.85
2017-12-05T23:35:28.616Z,8.70
2017-12-05T23:37:55.502Z,8.65
2017-12-05T23:40:22.340Z,9.43
2017-12-05T23:42:49.255Z,8.25
2017-12-05T23:45:16.108Z,9.80
2017-12-05T23:47:42.988Z,8.35
2017-12-05T23:50:09.868Z,9.95
2017-12-05T23:52:36.727Z,10.63
2017-12-05T23:55:03.595Z,10.60
2017-12-05T23:57:30.476Z,9.77
2017-12-05T23:59:58.080Z,8.55
